createdAt,value
2018-01-08T00:00:46.120Z,73.90
2018-01-08T00:03:12.573Z,73.70
2018-01-08T00:05:39.053Z,74.00
2018-01-08T00:08:05.581Z,73.40
2018-01-08T00:10:32.761Z,73.80
2018-01-08T00:12:59.233Z,73.80
2018-01-08T00:15:25.657Z,74.20
2018-01-08T00:17:52.089Z,74.00
2018-01-08T00:20:18.560Z,74.00
2018-01-08T00:22:45.048Z,74.10
2018-01-08T00:25:11.517Z,74.20
2018-01-08T00:27:37.950Z,73.80
2018-01-08T00:30:04.392Z,73.80
2018-01-08T00:32:31.561Z,74.20
2018-01-08T00:34:58.726Z,74.20
2018-01-08T00:37:25.870Z,74.30
2018-01-08T00:39:52.302Z,74.30
2018-01-08T00:42:19.497Z,74.50
2018-01-08T00:44:45.921Z,74.40
2018-01-08T00:47:12.366Z,74.20
2018-01-08T00:49:38.788Z,74.10
2018-01-08T00:52:05.232Z,73.70
2018-01-08T00:54:31.689Z,73.60
2018-01-08T00:56:58.120Z,73.60
2018-01-08T00:59:24.936Z,73.80
2018-01-08T01:01:51.350Z,74.20
2018-01-08T01:04:17.831Z,74.10
2018-01-08T01:06:45.048Z,73.80
2018-01-08T01:09:11.485Z,73.80
2018-01-08T01:11:37.948Z,74.00
2018-01-08T01:14:04.358Z,73.80
2018-01-08T01:16:30.810Z,73.90
2018-01-08T01:18:57.332Z,74.20
2018-01-08T01:21:23.756Z,74.10
2018-01-08T01:23:50.241Z,73.90
2018-01-08T01:26:16.696Z,74.10
2018-01-08T01:28:43.181Z,74.30
2018-01-08T01:31:09.570Z,74.40
2018-01-08T01:33:35.989Z,74.60
2018-01-08T01:36:02.445Z,74.30
2018-01-08T01:38:28.870Z,73.60
2018-01-08T01:40:55.345Z,73.80
2018-01-08T01:43:21.762Z,74.20
2018-01-08T01:45:48.196Z,74.10
2018-01-08T01:48:14.622Z,74.60
2018-01-08T01:50:41.061Z,74.30
2018-01-08T01:53:07.781Z,73.90
2018-01-08T01:55:34.183Z,73.40
2018-01-08T01:58:00.645Z,72.70
2018-01-08T02:00:27.078Z,72.30
2018-01-08T02:02:53.524Z,72.50
2018-01-08T02:05:19.932Z,72.80
2018-01-08T02:07:46.391Z,72.90
2018-01-08T02:10:12.829Z,72.80
2018-01-08T02:12:39.230Z,72.50
2018-01-08T02:15:05.653Z,72.90
2018-01-08T02:17:32.121Z,73.50
2018-01-08T02:19:58.553Z,73.40
2018-01-08T02:22:24.994Z,72.80
2018-01-08T02:24:51.435Z,73.00
2018-01-08T02:27:18.654Z,73.40
2018-01-08T02:29:45.082Z,73.40
2018-01-08T02:32:11.584Z,73.30
2018-01-08T02:34:38.752Z,73.70
2018-01-08T02:37:05.172Z,73.70
2018-01-08T02:39:32.357Z,73.50
2018-01-08T02:41:58.769Z,73.50
2018-01-08T02:44:25.197Z,73.90
2018-01-08T02:46:51.645Z,74.40
2018-01-08T02:49:18.139Z,74.60
2018-01-08T02:51:44.605Z,74.70
2018-01-08T02:54:11.034Z,74.50
2018-01-08T02:56:37.762Z,74.70
2018-01-08T02:59:04.905Z,74.50
2018-01-08T03:01:31.298Z,74.60
2018-01-08T03:03:57.985Z,74.50
2018-01-08T03:06:24.384Z,74.20
2018-01-08T03:08:50.788Z,74.20
2018-01-08T03:11:17.240Z,74.20
2018-01-08T03:13:43.657Z,74.30
2018-01-08T03:16:10.077Z,74.20
2018-01-08T03:18:36.505Z,74.50
2018-01-08T03:21:02.921Z,74.40
2018-01-08T03:23:29.369Z,74.60
2018-01-08T03:25:55.777Z,74.20
2018-01-08T03:28:22.204Z,73.50
2018-01-08T03:30:49.369Z,73.90
2018-01-08T03:33:15.853Z,73.90
2018-01-08T03:35:42.273Z,74.30
2018-01-08T03:38:08.685Z,74.60
2018-01-08T03:40:35.128Z,75.00
2018-01-08T03:43:01.561Z,74.90
2018-01-08T03:45:27.986Z,74.80
2018-01-08T03:47:54.381Z,75.20
2018-01-08T03:50:21.532Z,74.70
2018-01-08T03:52:47.973Z,74.70
2018-01-08T03:55:14.393Z,74.80
2018-01-08T03:57:41.566Z,75.40
2018-01-08T04:00:07.968Z,75.30
2018-01-08T04:02:34.432Z,75.70
2018-01-08T04:05:00.854Z,75.60
2018-01-08T04:07:27.296Z,75.90
2018-01-08T04:09:53.763Z,75.90
2018-01-08T04:12:20.152Z,75.90
2018-01-08T04:14:47.429Z,75.90
2018-01-08T04:17:13.841Z,75.90
2018-01-08T04:19:41.013Z,76.00
2018-01-08T04:22:07.441Z,75.90
2018-01-08T04:24:33.928Z,76.20
2018-01-08T04:27:00.337Z,75.90
2018-01-08T04:29:26.771Z,75.90
2018-01-08T04:31:53.172Z,76.30
2018-01-08T04:34:19.571Z,76.30
2018-01-08T04:36:46.753Z,76.40
2018-01-08T04:39:13.190Z,76.30
2018-01-08T04:41:39.617Z,76.40
2018-01-08T04:44:06.044Z,76.60
2018-01-08T04:46:32.636Z,77.00
2018-01-08T04:48:59.032Z,77.10
2018-01-08T04:51:25.471Z,77.10
2018-01-08T04:53:51.907Z,77.10
2018-01-08T04:56:18.329Z,77.10
2018-01-08T04:58:44.767Z,77.00
2018-01-08T05:01:11.194Z,77.00
2018-01-08T05:03:37.636Z,77.10
2018-01-08T05:06:04.033Z,77.10
2018-01-08T05:08:30.461Z,77.10
2018-01-08T05:10:56.919Z,77.00
2018-01-08T05:13:23.352Z,77.00
2018-01-08T05:15:49.789Z,77.30
2018-01-08T05:18:16.221Z,77.10
2018-01-08T05:20:42.635Z,77.10
2018-01-08T05:23:09.046Z,77.10
2018-01-08T05:25:35.486Z,77.10
2018-01-08T05:28:02.001Z,77.00
2018-01-08T05:30:28.442Z,77.00
2018-01-08T05:32:54.858Z,76.80
2018-01-08T05:35:21.296Z,76.80
2018-01-08T05:37:47.745Z,76.70
2018-01-08T05:40:14.905Z,76.90
2018-01-08T05:42:41.331Z,76.80
2018-01-08T05:45:08.450Z,77.10
2018-01-08T05:47:35.656Z,77.00
2018-01-08T05:50:02.081Z,77.00
2018-01-08T05:52:28.485Z,76.80
2018-01-08T05:54:55.840Z,76.60
2018-01-08T05:57:22.239Z,76.50
2018-01-08T05:59:48.642Z,76.90
2018-01-08T06:02:15.093Z,77.00
2018-01-08T06:04:41.523Z,77.00
2018-01-08T06:07:07.985Z,76.80
2018-01-08T06:09:34.416Z,77.10
2018-01-08T06:12:00.833Z,77.10
2018-01-08T06:14:27.445Z,77.20
2018-01-08T06:16:53.862Z,77.00
2018-01-08T06:19:20.265Z,77.30
2018-01-08T06:21:47.468Z,77.30
2018-01-08T06:24:13.900Z,77.10
2018-01-08T06:26:40.657Z,77.10
2018-01-08T06:29:07.854Z,77.60
2018-01-08T06:31:34.321Z,77.50
2018-01-08T06:34:00.725Z,77.70
2018-01-08T06:36:27.128Z,77.50
2018-01-08T06:38:53.567Z,77.40
2018-01-08T06:41:20.732Z,76.90
2018-01-08T06:43:47.889Z,77.10
2018-01-08T06:46:14.297Z,77.00
2018-01-08T06:48:41.497Z,77.50
2018-01-08T06:51:07.914Z,77.40
2018-01-08T06:53:34.331Z,77.20
2018-01-08T06:56:01.529Z,76.80
2018-01-08T06:58:28.026Z,76.80
2018-01-08T07:00:54.493Z,76.50
2018-01-08T07:03:20.934Z,76.80
2018-01-08T07:05:47.392Z,77.10
2018-01-08T07:08:13.872Z,77.30
2018-01-08T07:10:40.361Z,77.10
2018-01-08T07:13:06.803Z,77.00
2018-01-08T07:15:33.210Z,76.90
2018-01-08T07:17:59.654Z,76.70
2018-01-08T07:20:26.840Z,76.80
2018-01-08T07:22:53.989Z,76.90
2018-01-08T07:25:20.461Z,76.80
2018-01-08T07:27:46.908Z,77.10
2018-01-08T07:30:13.348Z,77.10
2018-01-08T07:32:39.769Z,77.10
2018-01-08T07:35:06.296Z,77.10
2018-01-08T07:37:32.717Z,77.30
2018-01-08T07:39:59.125Z,77.40
2018-01-08T07:42:25.640Z,77.50
2018-01-08T07:44:52.024Z,77.50
2018-01-08T07:47:18.421Z,77.50
2018-01-08T07:49:44.953Z,77.30
2018-01-08T07:52:12.100Z,77.30
2018-01-08T07:54:39.252Z,77.30
2018-01-08T07:57:05.746Z,77.30
2018-01-08T07:59:32.161Z,77.40
2018-01-08T08:01:58.589Z,77.30
2018-01-08T08:04:25.005Z,77.00
2018-01-08T08:06:51.430Z,77.00
2018-01-08T08:09:17.831Z,77.00
2018-01-08T08:11:45.012Z,76.40
2018-01-08T08:14:11.412Z,76.60
2018-01-08T08:16:37.848Z,76.20
2018-01-08T08:19:04.270Z,75.90
2018-01-08T08:21:30.716Z,75.60
2018-01-08T08:23:57.877Z,75.40
2018-01-08T08:26:24.328Z,75.40
2018-01-08T08:28:50.754Z,75.70
2018-01-08T08:31:17.160Z,75.50
2018-01-08T08:33:44.385Z,76.00
2018-01-08T08:36:10.841Z,76.00
2018-01-08T08:38:38.020Z,76.00
2018-01-08T08:41:04.621Z,76.00
2018-01-08T08:43:31.807Z,75.00
2018-01-08T08:45:59.314Z,75.00
2018-01-08T08:48:25.724Z,75.00
2018-01-08T08:50:52.151Z,75.10
2018-01-08T08:53:18.610Z,75.50
2018-01-08T08:55:45.826Z,77.70
2018-01-08T08:58:18.691Z,77.60
2018-01-08T09:00:38.725Z,77.30
2018-01-08T09:03:05.382Z,76.60
2018-01-08T09:05:31.798Z,75.50
2018-01-08T09:07:58.976Z,75.50
2018-01-08T09:10:26.166Z,75.50
2018-01-08T09:12:52.594Z,75.40
2018-01-08T09:15:19.014Z,75.20
2018-01-08T09:17:45.432Z,75.30
2018-01-08T09:20:12.561Z,75.30
2018-01-08T09:22:39.074Z,75.30
2018-01-08T09:25:06.222Z,75.00
2018-01-08T09:27:32.649Z,75.00
2018-01-08T09:29:59.225Z,75.00
2018-01-08T09:32:26.389Z,74.90
2018-01-08T09:34:53.574Z,75.00
2018-01-08T09:37:20.041Z,75.00
2018-01-08T09:39:46.508Z,74.60
2018-01-08T09:42:12.961Z,74.30
2018-01-08T09:44:39.373Z,74.60
2018-01-08T09:47:06.561Z,74.30
2018-01-08T09:49:33.007Z,74.30
2018-01-08T09:51:59.428Z,74.30
2018-01-08T09:54:25.982Z,73.90
2018-01-08T09:56:52.437Z,73.70
2018-01-08T09:59:18.981Z,73.70
2018-01-08T10:01:46.156Z,73.60
2018-01-08T10:04:24.646Z,73.60
2018-01-08T10:07:09.489Z,73.50
2018-01-08T10:09:54.144Z,73.80
2018-01-08T10:12:39.020Z,73.20
2018-01-08T10:15:23.734Z,73.70
2018-01-08T10:18:09.525Z,73.30
2018-01-08T10:20:42.793Z,73.30
2018-01-08T10:23:09.269Z,73.20
2018-01-08T10:25:35.711Z,73.60
2018-01-08T10:28:02.330Z,73.60
2018-01-08T10:30:28.857Z,73.10
2018-01-08T10:32:55.347Z,73.50
2018-01-08T10:35:22.639Z,71.50
2018-01-08T10:37:49.125Z,71.50
2018-01-08T10:40:15.758Z,71.20
2018-01-08T10:42:48.945Z,68.70
2018-01-08T10:45:21.430Z,68.70
2018-01-08T10:47:54.050Z,67.20
2018-01-08T10:50:26.613Z,63.20
2018-01-08T10:52:53.130Z,61.20
2018-01-08T10:55:20.304Z,61.50
2018-01-08T10:57:46.816Z,61.40
2018-01-08T11:00:13.381Z,61.60
2018-01-08T11:02:46.088Z,62.10
2018-01-08T11:05:12.525Z,60.80
2018-01-08T11:07:38.986Z,57.20
2018-01-08T11:10:06.454Z,58.80
2018-01-08T11:12:32.932Z,58.80
2018-01-08T11:14:59.392Z,59.60
2018-01-08T11:17:25.866Z,59.10
2018-01-08T11:19:52.346Z,60.60
2018-01-08T11:22:18.815Z,61.80
2018-01-08T11:24:45.281Z,62.30
2018-01-08T11:27:11.738Z,60.70
2018-01-08T11:29:38.927Z,55.60
2018-01-08T11:32:06.185Z,52.00
2018-01-08T11:34:32.707Z,52.00
2018-01-08T11:36:59.185Z,49.60
2018-01-08T11:39:25.809Z,48.70
2018-01-08T11:41:52.299Z,48.80
2018-01-08T11:44:18.785Z,50.30
2018-01-08T11:46:45.297Z,53.30
2018-01-08T11:49:11.825Z,55.00
2018-01-08T11:51:38.317Z,57.50
2018-01-08T11:54:04.848Z,57.80
2018-01-08T11:56:32.075Z,59.50
2018-01-08T11:58:58.591Z,60.00
2018-01-08T12:01:25.075Z,59.80
2018-01-08T12:03:51.701Z,60.90
2018-01-08T12:06:18.174Z,60.60
2018-01-08T12:08:44.675Z,60.90
2018-01-08T12:11:11.157Z,61.20
2018-01-08T12:13:37.649Z,61.80
2018-01-08T12:16:04.152Z,61.40
2018-01-08T12:18:30.642Z,61.40
2018-01-08T12:20:57.850Z,59.50
2018-01-08T12:23:24.333Z,59.50
2018-01-08T12:25:51.520Z,59.80
2018-01-08T12:28:17.989Z,59.80
2018-01-08T12:30:44.409Z,59.30
2018-01-08T12:33:10.933Z,60.00
2018-01-08T12:35:37.349Z,60.20
2018-01-08T12:38:03.791Z,59.60
2018-01-08T12:40:30.250Z,59.90
2018-01-08T12:42:56.687Z,59.90
2018-01-08T12:45:23.132Z,60.30
2018-01-08T12:47:50.377Z,58.60
2018-01-08T12:50:16.893Z,58.60
2018-01-08T12:52:43.369Z,58.10
2018-01-08T12:55:10.576Z,58.80
2018-01-08T12:57:37.088Z,58.60
2018-01-08T13:00:03.592Z,58.30
2018-01-08T13:02:30.850Z,58.50
2018-01-08T13:04:57.374Z,58.50
2018-01-08T13:07:24.626Z,58.60
2018-01-08T13:09:51.097Z,58.60
2018-01-08T13:12:17.651Z,59.20
2018-01-08T13:14:44.093Z,59.30
2018-01-08T13:17:10.592Z,59.70
2018-01-08T13:19:37.082Z,60.10
2018-01-08T13:22:03.592Z,59.40
2018-01-08T13:24:30.063Z,59.00
2018-01-08T13:26:56.534Z,59.40
2018-01-08T13:29:23.068Z,58.60
2018-01-08T13:31:49.548Z,57.90
2018-01-08T13:34:16.052Z,58.50
2018-01-08T13:36:42.526Z,59.20
2018-01-08T13:39:09.724Z,58.80
2018-01-08T13:41:36.327Z,58.80
2018-01-08T13:44:03.551Z,58.50
2018-01-08T13:46:30.080Z,58.40
2018-01-08T13:48:56.554Z,58.30
2018-01-08T13:51:23.018Z,58.10
2018-01-08T13:53:49.539Z,58.40
2018-01-08T13:56:16.022Z,58.40
2018-01-08T13:58:42.509Z,59.10
2018-01-08T14:01:09.021Z,59.20
2018-01-08T14:03:35.513Z,58.60
2018-01-08T14:06:02.026Z,58.80
2018-01-08T14:08:28.535Z,58.80
2018-01-08T14:10:55.031Z,59.10
2018-01-08T14:13:21.482Z,59.30
2018-01-08T14:15:47.985Z,60.00
2018-01-08T14:18:14.465Z,59.70
2018-01-08T14:20:40.901Z,59.00
2018-01-08T14:23:07.384Z,59.70
2018-01-08T14:25:33.833Z,59.90
2018-01-08T14:28:00.290Z,59.80
2018-01-08T14:30:26.753Z,59.20
2018-01-08T14:32:54.016Z,59.30
2018-01-08T14:35:20.463Z,59.20
2018-01-08T14:37:46.927Z,59.30
2018-01-08T14:40:13.389Z,59.10
2018-01-08T14:42:40.571Z,59.00
2018-01-08T14:45:07.051Z,59.00
2018-01-08T14:47:33.499Z,59.60
2018-01-08T14:50:00.649Z,59.90
2018-01-08T14:52:27.084Z,59.80
2018-01-08T14:54:54.281Z,60.40
2018-01-08T14:57:20.781Z,60.40
2018-01-08T14:59:47.231Z,60.50
2018-01-08T15:02:13.680Z,61.30
2018-01-08T15:04:40.157Z,60.20
2018-01-08T15:07:07.368Z,62.30
2018-01-08T15:09:33.847Z,62.30
2018-01-08T15:12:01.079Z,63.40
2018-01-08T15:14:27.577Z,63.40
2018-01-08T15:16:54.066Z,64.20
2018-01-08T15:19:20.504Z,64.10
2018-01-08T15:21:47.794Z,65.20
2018-01-08T15:24:14.257Z,65.10
2018-01-08T15:26:40.741Z,65.10
2018-01-08T15:29:07.164Z,65.60
2018-01-08T15:31:34.306Z,65.80
2018-01-08T15:34:00.824Z,65.70
2018-01-08T15:36:27.316Z,66.00
2018-01-08T15:38:53.797Z,65.90
2018-01-08T15:41:20.274Z,66.10
2018-01-08T15:43:46.711Z,66.30
2018-01-08T15:46:13.141Z,66.30
2018-01-08T15:48:39.591Z,66.30
2018-01-08T15:51:06.114Z,66.20
2018-01-08T15:53:32.528Z,65.70
2018-01-08T15:55:58.993Z,66.20
2018-01-08T15:58:25.422Z,66.40
2018-01-08T16:00:51.834Z,66.80
2018-01-08T16:03:18.282Z,66.90
2018-01-08T16:05:44.686Z,66.50
2018-01-08T16:08:11.865Z,66.70
2018-01-08T16:10:38.280Z,66.70
2018-01-08T16:13:04.732Z,65.90
2018-01-08T16:15:31.180Z,66.10
2018-01-08T16:17:57.659Z,66.60
2018-01-08T16:20:24.143Z,67.00
2018-01-08T16:22:50.581Z,66.80
2018-01-08T16:25:17.078Z,66.00
2018-01-08T16:27:43.498Z,65.30
2018-01-08T16:30:10.853Z,66.00
2018-01-08T16:32:37.474Z,66.00
2018-01-08T16:35:03.890Z,65.90
2018-01-08T16:37:30.328Z,65.50
2018-01-08T16:39:56.754Z,65.30
2018-01-08T16:42:23.170Z,65.00
2018-01-08T16:44:49.595Z,65.40
2018-01-08T16:47:16.010Z,65.90
2018-01-08T16:49:42.689Z,65.90
2018-01-08T16:52:09.111Z,65.90
2018-01-08T16:54:35.645Z,66.20
2018-01-08T16:57:02.820Z,66.30
2018-01-08T16:59:29.255Z,66.70
2018-01-08T17:01:55.737Z,66.90
2018-01-08T17:04:22.188Z,66.80
2018-01-08T17:06:48.622Z,65.50
2018-01-08T17:09:15.091Z,65.40
2018-01-08T17:11:42.260Z,66.40
2018-01-08T17:14:09.418Z,66.10
2018-01-08T17:16:35.920Z,66.10
2018-01-08T17:19:02.364Z,65.80
2018-01-08T17:21:28.840Z,65.80
2018-01-08T17:23:55.300Z,66.30
2018-01-08T17:26:21.750Z,66.60
2018-01-08T17:28:48.228Z,66.70
2018-01-08T17:31:14.657Z,66.50
2018-01-08T17:33:41.121Z,66.50
2018-01-08T17:36:07.583Z,66.20
2018-01-08T17:38:34.298Z,66.00
2018-01-08T17:41:00.711Z,66.40
2018-01-08T17:43:27.167Z,66.10
2018-01-08T17:45:53.672Z,66.30
2018-01-08T17:48:20.128Z,66.90
2018-01-08T17:50:46.601Z,67.10
2018-01-08T17:53:13.781Z,67.30
2018-01-08T17:55:40.197Z,67.30
2018-01-08T17:58:07.367Z,67.80
2018-01-08T18:00:33.812Z,67.70
2018-01-08T18:03:00.315Z,68.10
2018-01-08T18:05:26.762Z,68.40
2018-01-08T18:07:53.189Z,68.60
2018-01-08T18:10:19.690Z,68.70
2018-01-08T18:12:46.106Z,68.30
2018-01-08T18:15:12.550Z,68.80
2018-01-08T18:17:39.763Z,69.60
2018-01-08T18:20:06.227Z,69.50
2018-01-08T18:22:32.700Z,69.50
2018-01-08T18:24:59.892Z,69.10
2018-01-08T18:27:26.317Z,69.00
2018-01-08T18:29:52.764Z,69.50
2018-01-08T18:32:19.212Z,69.50
2018-01-08T18:34:45.642Z,69.60
2018-01-08T18:37:12.105Z,69.20
2018-01-08T18:39:38.534Z,69.50
2018-01-08T18:42:05.705Z,69.50
2018-01-08T18:44:32.872Z,69.50
2018-01-08T18:46:59.348Z,69.50
2018-01-08T18:49:25.809Z,69.70
2018-01-08T18:51:53.036Z,70.00
2018-01-08T18:54:19.510Z,69.80
2018-01-08T18:56:45.921Z,69.50
2018-01-08T18:59:12.416Z,70.00
2018-01-08T19:01:38.902Z,71.50
2018-01-08T19:04:06.056Z,69.50
2018-01-08T19:06:33.252Z,70.00
2018-01-08T19:08:59.712Z,70.00
2018-01-08T19:11:26.161Z,70.70
2018-01-08T19:13:53.460Z,71.40
2018-01-08T19:16:20.004Z,71.30
2018-01-08T19:18:47.121Z,70.80
2018-01-08T19:21:13.643Z,71.20
2018-01-08T19:23:40.114Z,71.10
2018-01-08T19:26:06.593Z,71.20
2018-01-08T19:28:33.776Z,71.30
2018-01-08T19:31:00.222Z,71.30
2018-01-08T19:33:26.670Z,71.40
2018-01-08T19:35:56.814Z,71.40
2018-01-08T19:38:24.338Z,71.00
2018-01-08T19:40:50.822Z,70.90
2018-01-08T19:43:18.038Z,71.10
2018-01-08T19:45:44.494Z,71.00
2018-01-08T19:48:10.960Z,70.60
2018-01-08T19:50:37.440Z,70.40
2018-01-08T19:53:03.937Z,70.70
2018-01-08T19:55:30.416Z,71.40
2018-01-08T19:57:56.902Z,71.10
2018-01-08T20:00:23.457Z,71.10
2018-01-08T20:02:49.913Z,71.20
2018-01-08T20:05:16.450Z,71.90
2018-01-08T20:07:42.933Z,71.40
2018-01-08T20:10:09.412Z,71.30
2018-01-08T20:12:35.857Z,71.90
2018-01-08T20:15:02.284Z,71.70
2018-01-08T20:17:28.753Z,71.70
2018-01-08T20:19:55.922Z,72.50
2018-01-08T20:22:22.417Z,72.40
2018-01-08T20:24:48.874Z,72.20
2018-01-08T20:27:16.032Z,72.20
2018-01-08T20:29:42.469Z,72.00
2018-01-08T20:32:09.005Z,72.00
2018-01-08T20:34:36.213Z,72.60
2018-01-08T20:37:02.721Z,72.20
2018-01-08T20:39:29.252Z,72.40
2018-01-08T20:41:55.739Z,72.50
2018-01-08T20:44:22.180Z,72.50
2018-01-08T20:46:48.972Z,73.20
2018-01-08T20:49:15.437Z,72.40
2018-01-08T20:51:42.629Z,72.70
2018-01-08T20:54:09.074Z,72.70
2018-01-08T20:56:35.499Z,72.30
2018-01-08T20:59:01.932Z,72.20
2018-01-08T21:01:28.403Z,72.50
2018-01-08T21:03:54.878Z,72.90
2018-01-08T21:06:21.309Z,73.30
2018-01-08T21:08:48.456Z,72.40
2018-01-08T21:11:15.594Z,72.40
2018-01-08T21:13:42.878Z,72.70
2018-01-08T21:16:09.320Z,72.60
2018-01-08T21:18:35.781Z,72.80
2018-01-08T21:21:02.213Z,73.10
2018-01-08T21:23:28.712Z,73.50
2018-01-08T21:25:55.139Z,73.50
2018-01-08T21:28:21.596Z,73.50
2018-01-08T21:30:48.069Z,73.20
2018-01-08T21:33:14.505Z,73.30
2018-01-08T21:35:41.721Z,73.30
2018-01-08T21:38:08.153Z,73.30
2018-01-08T21:40:34.622Z,74.30
2018-01-08T21:43:01.054Z,73.60
2018-01-08T21:45:27.509Z,74.00
2018-01-08T21:47:54.688Z,73.90
2018-01-08T21:50:21.120Z,73.80
2018-01-08T21:52:47.606Z,73.80
2018-01-08T21:55:14.781Z,73.90
2018-01-08T21:57:41.257Z,73.90
2018-01-08T22:00:07.744Z,73.90
2018-01-08T22:02:34.204Z,74.00
2018-01-08T22:05:00.693Z,73.90
2018-01-08T22:07:27.118Z,74.10
2018-01-08T22:09:53.757Z,74.20
2018-01-08T22:12:20.214Z,74.30
2018-01-08T22:14:46.686Z,74.00
2018-01-08T22:17:13.150Z,73.60
2018-01-08T22:19:39.576Z,73.70
2018-01-08T22:22:05.996Z,73.60
2018-01-08T22:24:32.450Z,73.60
2018-01-08T22:26:59.985Z,73.90
2018-01-08T22:29:26.384Z,73.90
2018-01-08T22:31:52.819Z,74.00
2018-01-08T22:34:19.261Z,73.90
2018-01-08T22:36:45.704Z,74.20
2018-01-08T22:39:12.152Z,73.80
2018-01-08T22:41:38.564Z,74.10
2018-01-08T22:44:04.987Z,73.50
2018-01-08T22:46:31.416Z,72.40
2018-01-08T22:48:57.844Z,70.90
2018-01-08T22:51:24.292Z,69.60
2018-01-08T22:53:50.730Z,69.50
2018-01-08T22:56:17.183Z,70.10
2018-01-08T22:58:43.588Z,70.40
2018-01-08T23:01:10.011Z,70.80
2018-01-08T23:03:36.548Z,71.60
2018-01-08T23:06:02.960Z,72.10
2018-01-08T23:08:30.157Z,73.50
2018-01-08T23:10:56.606Z,73.40
2018-01-08T23:13:23.041Z,73.40
2018-01-08T23:15:49.485Z,73.60
2018-01-08T23:18:15.949Z,73.90
2018-01-08T23:20:43.098Z,74.40
2018-01-08T23:23:10.306Z,74.30
2018-01-08T23:25:36.910Z,74.30
2018-01-08T23:28:03.323Z,74.30
2018-01-08T23:30:29.724Z,74.40
2018-01-08T23:32:56.184Z,74.30
2018-01-08T23:35:22.662Z,74.30
2018-01-08T23:37:49.221Z,74.30
2018-01-08T23:40:15.662Z,74.30
2018-01-08T23:42:42.101Z,74.60
2018-01-08T23:45:09.264Z,74.50
2018-01-08T23:47:36.444Z,74.30
2018-01-08T23:50:02.885Z,74.30
2018-01-08T23:52:29.337Z,74.60
2018-01-08T23:54:55.759Z,74.40
2018-01-08T23:57:22.205Z,74.40
2018-01-08T23:59:48.654Z,74.60
